Terminal Aerodrome Forecast
Issued by NWS Sioux Falls, SD

Home | Current Version | Previous Version | Graphics & Text | Print | Product List | Glossary On
Versions: 1 2 3 4 5 6 7 8 9 10 11 12 13 14 15 16 17 18 19 20 21 22 23 24 25 26 27
000
FTUS43 KFSD 032203 AAF
TAFFSD
TAF AMD
KFSD 032203Z 0322/0418 17013G18KT 5SM -SN BKN009 OVC040
     FM032300 16013KT P6SM SCT008 OVC040
     FM040000 18011KT P6SM BKN050
     FM040300 19009KT P6SM BKN010
     FM041500 27008KT P6SM SCT015=

USA.gov is the U.S. government's official web portal to all federal, state and local government web resources and services.